Time;durP1;ratioP1;P1;durP2;ratioP2;P2;SDS_P1;SDS_P2;PMS_P1;PMS_P2;Temp;Humidity;BMP_temperature;BMP_pressure;BME280_temperature;BME280_humidity;BME280_pressure;Samples;Min_cycle;Max_cycle;Signal;HPM_P1;HPM_P2
2021/01/07 00:00:47;;;;;;;5.28;2.92;;;6.90;86.10;;;;;;5013431;28;20042;-54
2021/01/07 00:03:13;;;;;;;4.60;3.13;;;6.90;86.10;;;;;;5013321;28;20030;-54
2021/01/07 00:05:40;;;;;;;6.95;2.72;;;6.90;86.10;;;;;;5013346;28;20529;-54
2021/01/07 00:08:05;;;;;;;3.85;2.67;;;6.90;86.10;;;;;;5013223;28;20479;-54
2021/01/07 00:10:31;;;;;;;3.97;2.60;;;6.90;86.10;;;;;;5021946;28;20029;-54
2021/01/07 00:12:57;;;;;;;7.32;3.67;;;6.90;86.10;;;;;;5032834;28;20491;-53
2021/01/07 00:15:22;;;;;;;7.53;3.42;;;6.90;86.10;;;;;;5033132;28;20021;-54
2021/01/07 00:17:48;;;;;;;6.15;3.30;;;6.90;86.10;;;;;;5032955;28;20030;-53
2021/01/07 00:20:14;;;;;;;6.38;2.75;;;6.90;86.10;;;;;;5032988;28;20030;-53
2021/01/07 00:22:40;;;;;;;5.05;2.50;;;6.90;86.10;;;;;;5032619;28;20071;-54
2021/01/07 00:25:09;;;;;;;6.88;2.85;;;6.90;86.10;;;;;;5036879;28;20442;-54
2021/01/07 00:27:35;;;;;;;5.80;3.03;;;6.90;86.10;;;;;;5037056;28;20390;-53
2021/01/07 00:30:02;;;;;;;4.28;2.47;;;6.90;86.10;;;;;;5036952;28;20025;-54
2021/01/07 00:32:28;;;;;;;4.35;2.10;;;6.90;86.10;;;;;;5036367;28;20022;-54
2021/01/07 00:34:53;;;;;;;4.43;2.83;;;6.90;86.10;;;;;;5036694;28;20044;-54
2021/01/07 00:37:19;;;;;;;4.35;2.58;;;6.90;86.10;;;;;;5036440;28;20072;-54
2021/01/07 00:39:45;;;;;;;5.05;2.65;;;6.90;86.10;;;;;;5036910;28;20029;-54
2021/01/07 00:42:10;;;;;;;6.43;3.05;;;6.90;86.10;;;;;;5036480;28;20115;-53
2021/01/07 00:44:36;;;;;;;6.40;3.03;;;6.90;86.00;;;;;;5036514;28;20163;-54
2021/01/07 00:47:02;;;;;;;4.25;2.03;;;6.90;86.10;;;;;;5036533;28;20033;-53
2021/01/07 00:49:28;;;;;;;7.13;3.35;;;6.90;86.10;;;;;;5036465;28;20032;-54
2021/01/07 00:51:53;;;;;;;6.53;2.85;;;6.80;86.00;;;;;;5036063;28;20026;-54
2021/01/07 00:54:19;;;;;;;6.65;3.15;;;6.90;86.10;;;;;;5036393;28;20029;-54
2021/01/07 00:56:45;;;;;;;5.35;2.55;;;6.90;86.10;;;;;;5036418;28;20033;-54
2021/01/07 00:59:11;;;;;;;5.20;2.53;;;6.90;86.10;;;;;;5036478;28;20042;-54
2021/01/07 01:01:45;;;;;;;4.13;2.28;;;6.80;86.00;;;;;;5035833;28;20083;-54
2021/01/07 01:04:12;;;;;;;6.38;3.15;;;6.80;86.00;;;;;;5035883;28;20545;-54
2021/01/07 01:06:38;;;;;;;6.15;3.20;;;6.90;86.10;;;;;;5036369;28;20176;-54
2021/01/07 01:09:05;;;;;;;5.20;2.92;;;6.80;86.00;;;;;;5036203;28;20490;-54
2021/01/07 01:11:37;;;;;;;6.47;3.22;;;6.80;86.00;;;;;;5019057;28;20071;-53
2021/01/07 01:14:03;;;;;;;6.85;3.42;;;6.90;86.10;;;;;;5016206;28;20527;-54
2021/01/07 01:16:30;;;;;;;6.97;3.25;;;6.90;86.10;;;;;;5016146;28;20116;-54
2021/01/07 01:18:55;;;;;;;7.28;3.08;;;6.80;85.90;;;;;;5016016;28;20030;-54
2021/01/07 01:21:21;;;;;;;6.53;3.60;;;6.80;86.00;;;;;;5015828;28;20423;-54
2021/01/07 01:23:46;;;;;;;6.78;3.35;;;6.90;86.10;;;;;;5016339;28;20407;-54
2021/01/07 01:26:15;;;;;;;6.55;3.55;;;6.90;86.10;;;;;;5016088;28;20045;-54
2021/01/07 01:28:41;;;;;;;6.30;3.85;;;6.80;86.00;;;;;;5016028;28;20458;-54
2021/01/07 01:31:07;;;;;;;6.53;3.63;;;6.90;86.10;;;;;;5015977;28;20731;-54
2021/01/07 01:33:32;;;;;;;5.57;3.08;;;6.80;85.90;;;;;;5015446;28;20025;-54
2021/01/07 01:35:58;;;;;;;6.63;3.90;;;6.90;86.00;;;;;;5015383;28;20029;-54
2021/01/07 01:38:23;;;;;;;5.45;3.55;;;6.90;86.10;;;;;;5015779;28;20371;-53
2021/01/07 01:40:49;;;;;;;7.45;4.00;;;6.90;86.00;;;;;;5015822;28;20022;-54
2021/01/07 01:43:15;;;;;;;7.05;4.15;;;6.90;86.80;;;;;;5015369;28;20022;-53
2021/01/07 01:45:40;;;;;;;7.90;3.35;;;6.90;86.00;;;;;;5015586;28;20048;-54
2021/01/07 01:48:08;;;;;;;8.90;3.97;;;6.90;86.00;;;;;;5015491;28;20030;-54
2021/01/07 01:50:34;;;;;;;5.10;3.08;;;6.90;86.00;;;;;;5015529;28;20113;-53
2021/01/07 01:52:59;;;;;;;8.68;3.55;;;6.80;85.90;;;;;;5015443;28;20447;-54
2021/01/07 01:55:25;;;;;;;11.20;3.80;;;6.80;85.90;;;;;;5015505;28;20030;-54
2021/01/07 01:57:51;;;;;;;9.98;4.40;;;6.80;85.90;;;;;;5015468;28;20114;-54
2021/01/07 02:00:17;;;;;;;6.35;3.20;;;6.90;86.00;;;;;;5032256;28;20021;-53
2021/01/07 02:02:43;;;;;;;6.70;3.72;;;6.80;85.90;;;;;;5046389;28;20024;-54
2021/01/07 02:05:09;;;;;;;8.68;4.35;;;6.80;85.90;;;;;;5054979;28;20029;-54
2021/01/07 02:07:39;;;;;;;6.05;3.28;;;6.90;86.00;;;;;;5054836;28;20052;-54
2021/01/07 02:10:07;;;;;;;11.52;4.45;;;6.80;85.90;;;;;;5050134;28;20026;-54
2021/01/07 02:12:34;;;;;;;7.95;3.92;;;6.90;85.90;;;;;;5034664;28;20106;-54
2021/01/07 02:14:59;;;;;;;8.73;4.38;;;6.90;85.90;;;;;;5034764;28;20124;-54
2021/01/07 02:17:25;;;;;;;9.57;4.00;;;6.80;85.90;;;;;;5035237;28;20097;-54
2021/01/07 02:19:51;;;;;;;7.53;4.28;;;6.80;85.90;;;;;;5034926;28;20458;-54
2021/01/07 02:22:16;;;;;;;8.30;4.50;;;6.90;86.00;;;;;;5034485;28;20025;-54
2021/01/07 02:24:42;;;;;;;7.00;3.97;;;6.80;85.90;;;;;;5034670;28;20036;-54
2021/01/07 02:27:09;;;;;;;8.57;3.72;;;6.80;85.90;;;;;;5034532;28;20064;-53
2021/01/07 02:29:36;;;;;;;8.98;4.05;;;6.80;85.90;;;;;;5034482;28;20025;-54
2021/01/07 02:32:03;;;;;;;9.98;4.78;;;6.80;85.90;;;;;;5034390;28;20104;-54
2021/01/07 02:34:29;;;;;;;7.22;4.25;;;6.80;85.90;;;;;;5034451;28;20029;-53
2021/01/07 02:36:55;;;;;;;7.82;3.88;;;6.80;85.90;;;;;;5034656;28;20032;-54
2021/01/07 02:39:21;;;;;;;10.80;4.68;;;6.80;85.90;;;;;;5034511;28;20034;-54
2021/01/07 02:41:54;;;;;;;10.73;4.70;;;6.80;85.90;;;;;;5029414;28;20121;-53
2021/01/07 02:44:20;;;;;;;9.65;4.35;;;6.80;85.90;;;;;;5014514;28;20042;-54
2021/01/07 02:46:50;;;;;;;9.18;4.05;;;6.80;85.90;;;;;;5013613;28;20088;-53
2021/01/07 02:49:16;;;;;;;13.93;4.80;;;6.80;85.90;;;;;;5014726;28;20101;-53
2021/01/07 02:51:41;;;;;;;6.10;3.58;;;6.80;85.90;;;;;;5014328;28;20038;-54
2021/01/07 02:54:07;;;;;;;6.50;3.38;;;6.80;85.90;;;;;;5014398;28;20044;-54
2021/01/07 02:56:33;;;;;;;7.38;3.90;;;6.80;85.80;;;;;;5014288;28;20030;-54
2021/01/07 02:58:59;;;;;;;6.93;3.30;;;6.80;85.80;;;;;;5014530;28;20032;-54
2021/01/07 03:01:25;;;;;;;6.50;3.70;;;6.80;85.80;;;;;;5014255;28;20029;-54
2021/01/07 03:03:50;;;;;;;7.55;3.80;;;6.80;85.80;;;;;;5014152;28;20022;-54
2021/01/07 03:06:16;;;;;;;7.55;3.72;;;6.80;85.80;;;;;;5011368;28;20085;-53
2021/01/07 03:08:42;;;;;;;8.90;3.83;;;6.80;85.80;;;;;;5013915;28;20352;-54
2021/01/07 03:11:09;;;;;;;9.05;4.03;;;6.80;85.80;;;;;;5027574;28;20033;-54
2021/01/07 03:13:34;;;;;;;5.50;3.20;;;6.80;85.80;;;;;;5033702;28;20477;-54
2021/01/07 03:16:00;;;;;;;4.70;3.13;;;6.80;85.90;;;;;;5033802;28;20240;-54
2021/01/07 03:18:26;;;;;;;9.35;3.65;;;6.80;85.80;;;;;;5033861;28;20033;-54
2021/01/07 03:20:51;;;;;;;8.98;4.80;;;6.80;85.80;;;;;;5033776;28;20029;-54
2021/01/07 03:23:17;;;;;;;7.88;3.65;;;6.80;85.90;;;;;;5033271;28;20102;-54
2021/01/07 03:25:43;;;;;;;3.60;2.63;;;6.80;85.80;;;;;;5033443;28;20109;-54
2021/01/07 03:28:08;;;;;;;6.25;3.67;;;6.80;85.80;;;;;;5033628;28;20021;-54
2021/01/07 03:30:34;;;;;;;7.20;3.38;;;6.80;85.80;;;;;;5033512;28;20033;-54
2021/01/07 03:33:00;;;;;;;8.25;3.35;;;6.80;85.80;;;;;;5033188;28;20053;-54
2021/01/07 03:35:25;;;;;;;8.32;3.55;;;6.80;85.90;;;;;;5033403;28;20036;-54
2021/01/07 03:37:51;;;;;;;7.10;3.05;;;6.80;85.80;;;;;;5033244;28;20061;-54
2021/01/07 03:40:16;;;;;;;7.97;3.30;;;6.80;85.80;;;;;;5033422;28;20044;-54
2021/01/07 03:42:42;;;;;;;5.22;2.95;;;6.80;85.80;;;;;;5033125;28;20029;-54
2021/01/07 03:45:08;;;;;;;5.82;3.15;;;6.80;85.80;;;;;;5033315;28;20037;-53
2021/01/07 03:47:34;;;;;;;7.47;3.50;;;6.80;85.80;;;;;;5033578;28;20360;-53
2021/01/07 03:49:59;;;;;;;6.85;3.80;;;6.80;85.80;;;;;;5033328;28;20026;-54
2021/01/07 03:52:25;;;;;;;7.15;3.83;;;6.80;85.80;;;;;;5032802;28;20030;-54
2021/01/07 03:54:51;;;;;;;7.40;3.83;;;6.80;85.80;;;;;;5033391;28;20025;-54
2021/01/07 03:57:16;;;;;;;7.75;3.80;;;6.80;85.80;;;;;;5033121;28;20067;-54
2021/01/07 03:59:42;;;;;;;8.20;3.55;;;6.80;85.80;;;;;;5033191;28;20032;-54
2021/01/07 04:02:08;;;;;;;4.88;3.22;;;6.80;85.80;;;;;;5032951;28;20362;-54
2021/01/07 04:04:33;;;;;;;8.52;3.40;;;6.80;85.80;;;;;;5033161;28;20497;-54
2021/01/07 04:06:59;;;;;;;5.07;2.72;;;6.80;85.80;;;;;;5032788;28;20048;-54
2021/01/07 04:09:24;;;;;;;6.47;3.10;;;6.80;85.70;;;;;;5033191;28;20025;-54
2021/01/07 04:11:50;;;;;;;5.95;3.35;;;6.80;85.80;;;;;;5013766;28;20025;-54
2021/01/07 04:14:16;;;;;;;7.00;3.65;;;6.80;85.80;;;;;;5013255;28;20084;-54
2021/01/07 04:16:41;;;;;;;7.80;3.40;;;6.80;85.70;;;;;;5013338;28;20455;-54
2021/01/07 04:19:07;;;;;;;6.65;3.65;;;6.80;85.70;;;;;;5013391;28;20101;-54
2021/01/07 04:21:33;;;;;;;7.00;3.35;;;6.80;85.70;;;;;;5012776;28;20069;-54
2021/01/07 04:23:59;;;;;;;3.47;2.20;;;6.80;85.70;;;;;;5013440;28;20057;-54
2021/01/07 04:26:25;;;;;;;6.35;3.20;;;6.80;85.70;;;;;;5013207;28;20190;-54
2021/01/07 04:28:50;;;;;;;5.30;3.13;;;6.80;85.80;;;;;;5013335;28;20044;-54
2021/01/07 04:31:16;;;;;;;9.73;4.72;;;6.80;85.70;;;;;;5012821;28;20034;-54
2021/01/07 04:33:42;;;;;;;9.32;3.70;;;6.80;85.70;;;;;;5012903;28;20509;-54
2021/01/07 04:36:08;;;;;;;10.07;4.25;;;6.80;85.70;;;;;;5012917;28;20029;-54
2021/01/07 04:38:33;;;;;;;12.32;4.15;;;6.80;85.70;;;;;;5013181;28;20034;-54
2021/01/07 04:40:59;;;;;;;9.38;4.55;;;6.80;85.70;;;;;;5013242;28;20251;-54
2021/01/07 04:43:25;;;;;;;9.77;4.10;;;6.80;85.70;;;;;;5012841;28;20030;-54
2021/01/07 04:45:51;;;;;;;6.72;3.80;;;6.80;85.70;;;;;;5012928;28;20045;-54
2021/01/07 04:48:18;;;;;;;10.25;4.88;;;6.80;85.60;;;;;;5013144;28;20026;-54
2021/01/07 04:50:44;;;;;;;9.82;3.70;;;6.80;85.70;;;;;;5012772;28;20030;-54
2021/01/07 04:53:10;;;;;;;8.77;4.65;;;6.80;85.70;;;;;;5012851;28;20459;-54
2021/01/07 04:55:36;;;;;;;11.05;4.50;;;6.80;85.60;;;;;;5013194;28;20245;-54
2021/01/07 04:58:01;;;;;;;8.38;3.72;;;6.80;85.60;;;;;;5013004;28;20021;-54
2021/01/07 05:00:30;;;;;;;12.35;4.35;;;6.80;85.60;;;;;;5013084;28;20026;-54
2021/01/07 05:02:56;;;;;;;10.18;4.70;;;6.80;85.60;;;;;;5011792;28;20348;-54
2021/01/07 05:05:22;;;;;;;12.20;4.65;;;6.80;85.60;;;;;;5012848;28;20140;-54
2021/01/07 05:07:49;;;;;;;10.63;4.97;;;6.80;85.50;;;;;;5012626;28;20057;-54
2021/01/07 05:10:15;;;;;;;9.27;4.85;;;6.80;85.50;;;;;;5019718;28;20163;-54
2021/01/07 05:12:41;;;;;;;9.70;4.70;;;6.80;85.50;;;;;;5035781;28;20447;-54
2021/01/07 05:15:08;;;;;;;14.80;5.63;;;6.80;85.50;;;;;;5036001;28;20075;-54
2021/01/07 05:17:37;;;;;;;12.02;5.68;;;6.80;85.50;;;;;;5035946;28;20021;-54
2021/01/07 05:20:13;;;;;;;10.90;5.93;;;6.80;85.40;;;;;;5036018;28;20358;-54
2021/01/07 05:22:41;;;;;;;19.08;6.55;;;6.80;85.40;;;;;;5035441;28;20025;-54
2021/01/07 05:25:14;;;;;;;12.10;6.05;;;6.90;85.50;;;;;;5035646;28;20428;-54
2021/01/07 05:27:43;;;;;;;10.95;5.05;;;6.80;85.40;;;;;;5035727;28;20100;-54
2021/01/07 05:30:11;;;;;;;14.82;5.90;;;6.80;85.40;;;;;;5035867;28;20051;-54
2021/01/07 05:32:38;;;;;;;10.30;5.53;;;6.80;85.40;;;;;;5035460;28;20516;-54
2021/01/07 05:35:06;;;;;;;12.27;6.25;;;6.80;85.40;;;;;;5036073;28;20025;-54
2021/01/07 05:37:41;;;;;;;10.57;5.57;;;6.80;85.40;;;;;;5035572;28;20029;-54
2021/01/07 05:40:08;;;;;;;15.15;6.05;;;6.80;85.40;;;;;;5036035;28;20026;-54
2021/01/07 05:42:42;;;;;;;13.60;6.13;;;6.80;85.40;;;;;;5035103;28;20052;-54
2021/01/07 05:45:09;;;;;;;11.45;5.60;;;6.80;85.40;;;;;;5035633;28;20041;-54
2021/01/07 05:47:46;;;;;;;17.17;6.22;;;6.80;85.40;;;;;;5030230;28;20091;-54
2021/01/07 05:50:13;;;;;;;13.35;5.25;;;6.80;85.30;;;;;;5035422;28;20057;-54
2021/01/07 05:52:42;;;;;;;10.18;4.97;;;6.90;85.40;;;;;;5034955;28;20024;-54
2021/01/07 05:55:09;;;;;;;14.15;6.22;;;6.90;85.40;;;;;;5035295;28;20028;-54
2021/01/07 05:57:37;;;;;;;13.70;6.38;;;6.80;85.40;;;;;;5035307;28;20099;-54
2021/01/07 06:00:08;;;;;;;15.23;5.68;;;6.80;85.40;;;;;;5035144;28;20105;-54
2021/01/07 06:02:38;;;;;;;13.00;5.88;;;6.80;85.30;;;;;;5035043;28;20487;-55
2021/01/07 06:05:09;;;;;;;18.00;6.95;;;6.90;85.40;;;;;;5035273;28;20033;-54
2021/01/07 06:07:37;;;;;;;14.13;6.75;;;6.80;85.30;;;;;;5035262;28;20025;-54
2021/01/07 06:10:07;;;;;;;13.00;6.25;;;6.80;85.30;;;;;;5030541;28;20061;-54
2021/01/07 06:12:33;;;;;;;14.77;6.70;;;6.80;85.30;;;;;;5014846;28;20029;-54
2021/01/07 06:15:08;;;;;;;18.80;7.43;;;6.80;85.30;;;;;;5015443;28;20092;-54
2021/01/07 06:17:34;;;;;;;18.30;7.40;;;6.80;85.30;;;;;;5015210;28;20332;-55
2021/01/07 06:19:59;;;;;;;11.63;6.32;;;6.80;85.30;;;;;;5015304;28;20037;-54
2021/01/07 06:22:25;;;;;;;14.75;6.18;;;6.80;85.40;;;;;;5014509;28;20022;-54
2021/01/07 06:24:55;;;;;;;15.65;6.15;;;6.80;85.40;;;;;;5014963;28;20099;-54
2021/01/07 06:27:30;;;;;;;14.30;6.65;;;6.80;85.40;;;;;;5014724;28;20018;-54
2021/01/07 06:30:10;;;;;;;20.33;7.90;;;6.80;85.40;;;;;;5015057;28;20053;-54
2021/01/07 06:32:37;;;;;;;13.90;6.78;;;6.80;85.40;;;;;;5014676;28;20033;-54
2021/01/07 06:35:10;;;;;;;15.57;7.10;;;6.80;85.40;;;;;;5014903;28;20033;-54
2021/01/07 06:37:43;;;;;;;14.60;6.22;;;6.80;85.30;;;;;;5014450;28;20565;-54
2021/01/07 06:40:11;;;;;;;18.48;7.90;;;6.80;85.20;;;;;;5014743;28;20407;-54
2021/01/07 06:42:38;;;;;;;22.33;9.55;;;6.80;85.20;;;;;;5014265;28;20049;-54
2021/01/07 06:45:05;;;;;;;19.38;7.05;;;6.90;85.30;;;;;;5014548;28;20080;-54
2021/01/07 06:47:31;;;;;;;15.18;7.53;;;6.90;85.30;;;;;;5014594;28;20421;-54
2021/01/07 06:50:00;;;;;;;18.65;7.68;;;6.80;85.20;;;;;;5014581;28;20494;-54
2021/01/07 06:52:37;;;;;;;22.42;9.13;;;6.90;85.20;;;;;;5013974;28;20416;-54
2021/01/07 06:55:04;;;;;;;20.98;8.77;;;6.90;85.20;;;;;;5014627;28;20462;-54
2021/01/07 06:57:43;;;;;;;20.70;8.07;;;6.90;85.20;;;;;;5014257;28;20121;-53
2021/01/07 07:00:13;;;;;;;22.30;8.80;;;6.90;85.20;;;;;;5014549;28;20061;-54
2021/01/07 07:02:39;;;;;;;18.00;7.75;;;6.90;85.20;;;;;;5013626;28;20037;-53
2021/01/07 07:05:13;;;;;;;22.55;8.25;;;6.80;85.20;;;;;;5014503;28;20033;-54
2021/01/07 07:07:38;;;;;;;18.38;7.80;;;6.90;85.20;;;;;;5014422;28;20053;-54
2021/01/07 07:10:19;;;;;;;22.35;8.15;;;6.80;85.10;;;;;;5018743;28;20080;-54
2021/01/07 07:12:54;;;;;;;19.08;8.75;;;6.80;85.10;;;;;;5033563;28;20028;-54
2021/01/07 07:15:25;;;;;;;24.13;8.52;;;6.80;85.10;;;;;;5033663;28;20025;-54
2021/01/07 07:17:56;;;;;;;14.27;7.15;;;6.80;85.20;;;;;;5033837;28;20546;-54
2021/01/07 07:20:25;;;;;;;18.27;8.15;;;6.90;85.20;;;;;;5033880;28;20155;-54
2021/01/07 07:22:51;;;;;;;18.60;7.95;;;6.90;85.10;;;;;;5033908;28;20028;-54
2021/01/07 07:25:26;;;;;;;24.80;9.30;;;6.90;85.10;;;;;;5033499;28;20033;-54
2021/01/07 07:27:52;;;;;;;21.52;8.60;;;6.90;85.10;;;;;;5033595;28;20029;-54
2021/01/07 07:30:28;;;;;;;18.83;7.10;;;6.80;85.00;;;;;;5033830;28;20036;-54
2021/01/07 07:32:56;;;;;;;20.05;7.03;;;6.80;85.00;;;;;;5032668;28;20486;-54
2021/01/07 07:35:24;;;;;;;19.75;7.72;;;6.90;85.10;;;;;;5033591;28;20468;-54
2021/01/07 07:37:50;;;;;;;18.10;7.63;;;6.80;85.00;;;;;;5032652;28;20033;-54
2021/01/07 07:40:37;;;;;;;18.90;8.60;;;6.80;85.00;;;;;;5032662;28;20464;-54
2021/01/07 07:43:04;;;;;;;19.23;7.63;;;6.90;85.10;;;;;;5023587;28;20406;-54
2021/01/07 07:45:32;;;;;;;22.15;7.20;;;6.90;85.10;;;;;;5022102;28;20038;-54
2021/01/07 07:48:00;;;;;;;18.38;7.45;;;6.80;85.00;;;;;;5023291;28;20033;-54
2021/01/07 07:50:28;;;;;;;19.90;7.40;;;6.90;85.10;;;;;;5023327;28;20052;-54
2021/01/07 07:53:07;;;;;;;21.58;8.20;;;6.90;85.00;;;;;;5023482;28;20025;-54
2021/01/07 07:55:37;;;;;;;18.92;8.18;;;6.90;85.00;;;;;;5024029;28;20340;-54
2021/01/07 07:58:17;;;;;;;21.30;8.25;;;6.90;85.00;;;;;;5023923;28;20030;-54
2021/01/07 08:00:55;;;;;;;21.48;8.82;;;6.90;85.00;;;;;;5024087;28;20108;-53
2021/01/07 08:03:31;;;;;;;18.30;6.78;;;6.90;85.00;;;;;;5016206;28;20022;-54
2021/01/07 08:05:59;;;;;;;19.98;7.78;;;6.90;85.00;;;;;;5021797;28;20030;-54
2021/01/07 08:08:25;;;;;;;24.92;9.48;;;6.90;85.00;;;;;;5023364;28;20097;-54
2021/01/07 08:10:52;;;;;;;20.77;7.78;;;6.90;85.00;;;;;;5023013;28;20493;-54
2021/01/07 08:13:25;;;;;;;19.27;8.15;;;6.90;85.00;;;;;;5023388;28;20025;-54
2021/01/07 08:15:55;;;;;;;20.92;8.50;;;6.90;85.00;;;;;;5023015;28;20026;-53
2021/01/07 08:18:25;;;;;;;19.00;7.90;;;6.90;84.90;;;;;;5021441;28;20165;-54
2021/01/07 08:20:53;;;;;;;19.70;8.15;;;6.90;84.90;;;;;;5022462;28;20030;-54
2021/01/07 08:23:20;;;;;;;19.98;7.30;;;6.90;84.90;;;;;;5015456;28;20025;-54
2021/01/07 08:25:48;;;;;;;20.58;8.13;;;6.90;84.90;;;;;;5013214;28;20038;-53
2021/01/07 08:28:22;;;;;;;24.05;9.10;;;6.90;84.90;;;;;;5013541;28;20088;-54
2021/01/07 08:30:51;;;;;;;19.42;8.40;;;6.90;84.90;;;;;;5013431;28;20451;-54
2021/01/07 08:33:20;;;;;;;21.30;8.23;;;6.90;84.80;;;;;;5012816;28;20336;-53
2021/01/07 08:35:46;;;;;;;18.73;7.60;;;6.90;84.90;;;;;;5013410;28;20029;-54
2021/01/07 08:38:32;;;;;;;19.73;7.70;;;6.90;85.60;;;;;;5011422;28;20034;-54
2021/01/07 08:41:12;;;;;;;20.80;8.20;;;7.00;84.80;;;;;;5017705;28;20424;-54
2021/01/07 08:43:38;;;;;;;18.13;8.20;;;6.90;84.70;;;;;;5028274;28;20103;-53
2021/01/07 08:46:19;;;;;;;21.05;9.10;;;7.00;84.80;;;;;;5025627;28;20379;-54
2021/01/07 08:48:57;;;;;;;18.45;7.35;;;7.00;84.80;;;;;;5036214;28;20482;-54
2021/01/07 08:51:23;;;;;;;18.38;7.53;;;7.00;84.70;;;;;;5028883;28;20040;-54
2021/01/07 08:53:55;;;;;;;20.85;8.75;;;7.00;84.70;;;;;;5035933;28;20022;-54
2021/01/07 08:56:40;;;;;;;22.75;7.70;;;7.00;84.70;;;;;;5028651;28;20026;-54
2021/01/07 08:59:32;;;;;;;19.67;6.70;;;7.00;84.60;;;;;;5016475;28;20596;-54
2021/01/07 09:02:04;;;;;;;19.73;5.90;;;7.00;84.60;;;;;;5028965;28;20079;-54
2021/01/07 09:04:43;;;;;;;19.15;7.63;;;7.00;84.60;;;;;;5036035;28;20037;-54
2021/01/07 09:07:16;;;;;;;31.15;10.85;;;7.00;84.60;;;;;;5035347;28;20475;-54
2021/01/07 09:09:50;;;;;;;27.58;9.48;;;7.00;84.50;;;;;;5017866;28;20589;-54
2021/01/07 09:12:32;;;;;;;29.58;10.10;;;7.10;84.50;;;;;;5035893;28;20105;-54
2021/01/07 09:15:06;;;;;;;28.95;10.15;;;7.10;84.50;;;;;;5019110;28;20053;-54
2021/01/07 09:17:55;;;;;;;26.17;9.90;;;7.10;84.50;;;;;;5024638;28;20034;-54
2021/01/07 09:20:28;;;;;;;29.80;9.02;;;7.10;84.50;;;;;;5029769;28;20514;-54
2021/01/07 09:23:04;;;;;;;24.33;10.02;;;7.10;84.50;;;;;;5031940;28;20440;-54
2021/01/07 09:25:30;;;;;;;31.90;9.98;;;7.10;84.40;;;;;;5035811;28;20045;-54
2021/01/07 09:27:57;;;;;;;27.50;10.77;;;7.10;85.20;;;;;;5022087;28;20620;-54
2021/01/07 09:30:23;;;;;;;23.88;8.85;;;7.10;84.30;;;;;;5015840;28;20044;-54
2021/01/07 09:32:49;;;;;;;25.65;9.75;;;7.10;84.30;;;;;;5015505;28;20063;-54
2021/01/07 09:35:14;;;;;;;24.85;9.90;;;7.10;84.30;;;;;;5027979;28;20037;-54
2021/01/07 09:37:40;;;;;;;25.75;9.68;;;7.10;84.30;;;;;;5026750;28;20033;-54
2021/01/07 09:40:07;;;;;;;29.60;11.07;;;7.10;84.30;;;;;;5035657;28;20029;-54
2021/01/07 09:42:33;;;;;;;30.20;11.10;;;7.20;84.40;;;;;;5035379;28;20355;-54
2021/01/07 09:45:00;;;;;;;32.80;11.00;;;7.20;84.40;;;;;;5035301;28;20128;-54
2021/01/07 09:47:27;;;;;;;29.83;11.43;;;7.20;84.30;;;;;;5023735;28;20026;-54
2021/01/07 09:49:53;;;;;;;33.58;11.35;;;7.20;84.30;;;;;;5015579;28;20022;-54
2021/01/07 09:52:19;;;;;;;21.45;9.40;;;7.20;84.20;;;;;;5015506;28;20037;-54
2021/01/07 09:54:45;;;;;;;26.50;9.70;;;7.20;84.20;;;;;;5015443;28;20022;-54
2021/01/07 09:57:13;;;;;;;29.40;10.43;;;7.20;84.20;;;;;;5016570;28;20033;-54
2021/01/07 09:59:40;;;;;;;24.80;9.48;;;7.20;84.20;;;;;;5015641;28;20029;-54
2021/01/07 10:02:08;;;;;;;27.25;9.73;;;7.20;84.20;;;;;;5015018;28;20037;-54
2021/01/07 10:04:34;;;;;;;29.88;10.63;;;7.20;84.20;;;;;;5015447;28;20064;-54
2021/01/07 10:07:01;;;;;;;23.10;8.98;;;7.20;84.10;;;;;;5022372;28;20068;-54
2021/01/07 10:09:27;;;;;;;24.25;9.05;;;7.30;84.20;;;;;;5031371;28;20054;-54
2021/01/07 10:11:55;;;;;;;27.27;9.80;;;7.20;84.20;;;;;;5034216;28;20061;-54
2021/01/07 10:14:22;;;;;;;24.98;8.98;;;7.30;84.20;;;;;;5034723;28;20033;-54
2021/01/07 10:16:51;;;;;;;26.88;8.75;;;7.30;84.20;;;;;;5030843;28;20034;-54
2021/01/07 10:19:19;;;;;;;22.20;10.02;;;7.30;84.10;;;;;;5015137;28;20014;-54
2021/01/07 10:21:55;;;;;;;23.02;9.32;;;7.30;84.10;;;;;;5014120;28;20368;-53
2021/01/07 10:24:21;;;;;;;21.80;7.72;;;7.30;84.10;;;;;;5023474;28;20391;-54
2021/01/07 10:26:46;;;;;;;23.80;9.27;;;7.30;84.00;;;;;;5017200;28;20034;-53
2021/01/07 10:29:12;;;;;;;26.73;9.18;;;7.30;84.00;;;;;;5014817;28;20030;-54
2021/01/07 10:31:38;;;;;;;21.08;8.48;;;7.40;84.00;;;;;;5022432;28;20065;-54
2021/01/07 10:34:08;;;;;;;24.40;8.30;;;7.40;84.00;;;;;;5022615;28;20068;-54
2021/01/07 10:36:36;;;;;;;26.58;10.05;;;7.40;84.00;;;;;;5034261;28;20518;-54
2021/01/07 10:39:04;;;;;;;23.90;9.60;;;7.40;83.90;;;;;;5034411;28;20056;-54
2021/01/07 10:41:30;;;;;;;22.45;8.02;;;7.40;83.90;;;;;;5033709;28;20021;-54
2021/01/07 10:44:00;;;;;;;21.15;7.55;;;7.50;83.80;;;;;;5033200;28;20061;-54
2021/01/07 10:46:29;;;;;;;21.27;7.27;;;7.50;83.90;;;;;;5020228;28;20042;-54
2021/01/07 10:48:57;;;;;;;28.88;8.70;;;7.50;83.80;;;;;;5031681;28;20279;-54
2021/01/07 10:51:31;;;;;;;23.42;9.18;;;7.50;83.90;;;;;;5020054;28;20048;-54
2021/01/07 10:54:11;;;;;;;18.92;7.75;;;7.50;83.80;;;;;;5025492;28;20318;-54
2021/01/07 10:57:15;;;;;;;25.37;9.60;;;7.50;83.80;;;;;;5032992;28;20076;-54
2021/01/07 11:00:01;;;;;;;29.70;10.25;;;7.50;83.70;;;;;;5033024;28;20045;-54
2021/01/07 11:02:57;;;;;;;22.23;8.18;;;7.60;83.70;;;;;;5033179;28;20045;-54
2021/01/07 11:05:26;;;;;;;20.10;8.85;;;7.60;83.70;;;;;;5033820;28;20033;-54
2021/01/07 11:08:15;;;;;;;24.90;8.40;;;7.60;83.70;;;;;;5017947;28;20378;-54
2021/01/07 11:10:49;;;;;;;19.63;7.55;;;7.50;83.60;;;;;;5017304;28;20032;-54
2021/01/07 11:13:17;;;;;;;22.08;8.45;;;7.60;83.70;;;;;;5033903;28;20029;-54
2021/01/07 11:15:45;;;;;;;26.60;9.55;;;7.60;83.70;;;;;;5033773;28;20095;-54
2021/01/07 11:18:19;;;;;;;20.23;8.20;;;7.60;83.60;;;;;;5031077;28;20362;-54
2021/01/07 11:20:53;;;;;;;19.33;9.05;;;7.60;83.60;;;;;;5027597;28;20036;-54
2021/01/07 11:23:19;;;;;;;19.17;8.60;;;7.60;83.60;;;;;;5013116;28;20033;-54
2021/01/07 11:25:48;;;;;;;24.15;9.27;;;7.60;83.60;;;;;;5013891;28;20034;-54
2021/01/07 11:28:17;;;;;;;21.05;9.57;;;7.60;83.60;;;;;;5028651;28;20021;-53
2021/01/07 11:30:43;;;;;;;20.25;7.50;;;7.60;83.70;;;;;;5033703;28;20362;-54
2021/01/07 11:33:10;;;;;;;15.20;7.20;;;7.60;83.70;;;;;;5032834;28;20029;-54
2021/01/07 11:35:41;;;;;;;19.77;8.93;;;7.70;83.70;;;;;;5030422;28;20026;-54
2021/01/07 11:38:21;;;;;;;18.80;7.30;;;7.60;83.60;;;;;;5023765;28;20036;-54
2021/01/07 11:41:09;;;;;;;21.55;7.68;;;7.60;83.70;;;;;;5033616;28;20030;-54
2021/01/07 11:44:12;;;;;;;21.95;7.05;;;7.60;83.60;;;;;;5033143;28;20032;-54
2021/01/07 11:46:41;;;;;;;23.85;7.55;;;7.60;83.60;;;;;;5030476;28;20038;-54
2021/01/07 11:49:13;;;;;;;21.00;7.80;;;7.60;83.60;;;;;;5013678;28;20470;-54
2021/01/07 11:51:39;;;;;;;21.60;7.55;;;7.60;83.60;;;;;;5013529;28;20041;-54
2021/01/07 11:54:07;;;;;;;20.73;7.32;;;7.60;83.60;;;;;;5013458;28;20022;-54
2021/01/07 11:56:33;;;;;;;29.60;9.88;;;7.60;83.60;;;;;;5015290;28;20026;-54
2021/01/07 11:59:01;;;;;;;23.48;8.57;;;7.60;83.70;;;;;;5019224;28;20041;-54
2021/01/07 12:01:32;;;;;;;23.75;7.55;;;7.60;83.60;;;;;;5016483;28;20483;-54
2021/01/07 12:03:58;;;;;;;25.73;8.07;;;7.70;83.70;;;;;;5013562;28;20350;-54
2021/01/07 12:06:31;;;;;;;25.38;9.18;;;7.60;83.80;;;;;;5013250;28;20072;-54
2021/01/07 12:09:14;;;;;;;24.90;10.13;;;7.60;83.80;;;;;;5032906;28;20026;-54
2021/01/07 12:11:49;;;;;;;22.00;8.18;;;7.60;83.70;;;;;;5015359;28;20453;-54
2021/01/07 12:14:16;;;;;;;26.70;9.52;;;7.60;83.70;;;;;;5013294;28;20025;-54
2021/01/07 12:16:51;;;;;;;21.95;8.10;;;7.70;83.80;;;;;;5014902;28;20029;-54
2021/01/07 12:19:19;;;;;;;22.85;8.50;;;7.70;83.80;;;;;;5014373;28;20036;-54
2021/01/07 12:21:47;;;;;;;17.83;7.45;;;7.70;83.70;;;;;;5017276;28;20124;-54
2021/01/07 12:24:16;;;;;;;19.85;7.68;;;7.70;83.70;;;;;;5021436;28;20354;-54
2021/01/07 12:26:46;;;;;;;26.17;8.50;;;7.70;83.70;;;;;;5031444;28;20069;-54
2021/01/07 12:29:24;;;;;;;20.65;8.52;;;7.70;83.80;;;;;;5017649;28;20026;-54
2021/01/07 12:31:51;;;;;;;24.30;7.97;;;7.70;83.80;;;;;;5016565;28;20030;-54
2021/01/07 12:35:04;;;;;;;18.40;6.75;;;7.70;83.80;;;;;;5016950;28;20109;-54
2021/01/07 12:37:36;;;;;;;16.33;5.65;;;7.70;83.80;;;;;;5029928;28;20065;-54
2021/01/07 12:40:09;;;;;;;19.60;6.68;;;7.70;83.80;;;;;;5036637;28;20036;-54
2021/01/07 12:42:49;;;;;;;14.20;5.85;;;7.70;83.80;;;;;;5036593;28;20120;-54
2021/01/07 12:45:16;;;;;;;19.05;7.43;;;7.70;83.80;;;;;;5036452;28;20152;-54
2021/01/07 12:47:42;;;;;;;18.98;7.05;;;7.70;83.80;;;;;;5033563;28;20463;-54
2021/01/07 12:50:10;;;;;;;17.75;7.35;;;7.70;83.80;;;;;;5036597;28;20024;-54
2021/01/07 12:52:36;;;;;;;19.60;7.43;;;7.70;83.80;;;;;;5035881;28;20026;-54
2021/01/07 12:58:24;;;;;;;19.30;7.00;;;7.70;83.90;;;;;;5010278;28;20044;-53
2021/01/07 13:01:09;;;;;;;13.18;5.82;;;7.70;83.80;;;;;;5032469;28;20045;-54
2021/01/07 13:03:53;;;;;;;14.35;6.13;;;7.70;83.80;;;;;;5035085;28;20025;-54